sensor_id;sensor_type;location;lat;lon;timestamp;temperature;humidity
37204;DHT22;23098;48.054;10.636;2023-09-19T00:01:07;15.90;99.90
37204;DHT22;23098;48.054;10.636;2023-09-19T00:03:34;15.80;99.90
37204;DHT22;23098;48.054;10.636;2023-09-19T00:06:03;15.70;99.90
37204;DHT22;23098;48.054;10.636;2023-09-19T00:08:28;15.70;99.90
37204;DHT22;23098;48.054;10.636;2023-09-19T00:10:54;15.60;99.90
37204;DHT22;23098;48.054;10.636;2023-09-19T00:13:20;15.60;99.90
37204;DHT22;23098;48.054;10.636;2023-09-19T00:15:47;15.60;99.90
37204;DHT22;23098;48.054;10.636;2023-09-19T00:18:17;15.70;99.90
37204;DHT22;23098;48.054;10.636;2023-09-19T00:20:44;15.80;99.90
37204;DHT22;23098;48.054;10.636;2023-09-19T00:23:13;15.70;99.90
37204;DHT22;23098;48.054;10.636;2023-09-19T00:25:39;15.70;99.90
37204;DHT22;23098;48.054;10.636;2023-09-19T00:28:05;15.80;99.90
37204;DHT22;23098;48.054;10.636;2023-09-19T00:30:33;15.90;99.90
37204;DHT22;23098;48.054;10.636;2023-09-19T00:32:58;16.00;99.90
37204;DHT22;23098;48.054;10.636;2023-09-19T00:35:24;16.10;99.90
37204;DHT22;23098;48.054;10.636;2023-09-19T00:37:50;16.30;99.90
37204;DHT22;23098;48.054;10.636;2023-09-19T00:40:16;16.30;99.90
37204;DHT22;23098;48.054;10.636;2023-09-19T00:42:45;16.40;99.90
37204;DHT22;23098;48.054;10.636;2023-09-19T00:45:13;16.50;99.90
37204;DHT22;23098;48.054;10.636;2023-09-19T00:47:50;16.60;99.90
37204;DHT22;23098;48.054;10.636;2023-09-19T00:50:21;16.70;99.90
37204;DHT22;23098;48.054;10.636;2023-09-19T00:52:54;16.70;99.90
37204;DHT22;23098;48.054;10.636;2023-09-19T00:55:24;16.80;99.90
37204;DHT22;23098;48.054;10.636;2023-09-19T00:57:49;16.80;99.90
37204;DHT22;23098;48.054;10.636;2023-09-19T01:00:15;16.80;99.90
37204;DHT22;23098;48.054;10.636;2023-09-19T01:02:42;16.80;99.90
37204;DHT22;23098;48.054;10.636;2023-09-19T01:05:10;16.80;99.90
37204;DHT22;23098;48.054;10.636;2023-09-19T01:07:36;16.80;99.90
37204;DHT22;23098;48.054;10.636;2023-09-19T01:10:04;16.80;99.90
37204;DHT22;23098;48.054;10.636;2023-09-19T01:13:14;16.70;99.90
37204;DHT22;23098;48.054;10.636;2023-09-19T01:19:35;16.60;99.90
37204;DHT22;23098;48.054;10.636;2023-09-19T01:22:28;16.60;99.90
37204;DHT22;23098;48.054;10.636;2023-09-19T01:30:53;16.60;99.90
37204;DHT22;23098;48.054;10.636;2023-09-19T01:33:23;16.50;99.90
37204;DHT22;23098;48.054;10.636;2023-09-19T01:35:49;16.60;99.90
37204;DHT22;23098;48.054;10.636;2023-09-19T01:38:15;16.60;99.90
37204;DHT22;23098;48.054;10.636;2023-09-19T01:40:43;16.50;99.90
37204;DHT22;23098;48.054;10.636;2023-09-19T01:43:17;16.50;99.90
37204;DHT22;23098;48.054;10.636;2023-09-19T01:46:15;16.50;99.90
37204;DHT22;23098;48.054;10.636;2023-09-19T01:48:58;16.50;99.90
37204;DHT22;23098;48.054;10.636;2023-09-19T01:51:42;16.50;99.90
37204;DHT22;23098;48.054;10.636;2023-09-19T01:54:12;16.50;99.90
37204;DHT22;23098;48.054;10.636;2023-09-19T01:56:52;16.40;99.90
37204;DHT22;23098;48.054;10.636;2023-09-19T01:59:25;16.40;99.90
37204;DHT22;23098;48.054;10.636;2023-09-19T02:01:54;16.40;99.90
37204;DHT22;23098;48.054;10.636;2023-09-19T02:04:20;16.30;99.90
37204;DHT22;23098;48.054;10.636;2023-09-19T02:06:46;16.30;99.90
37204;DHT22;23098;48.054;10.636;2023-09-19T02:09:14;16.30;99.90
37204;DHT22;23098;48.054;10.636;2023-09-19T02:11:40;16.20;99.90
37204;DHT22;23098;48.054;10.636;2023-09-19T02:14:07;16.30;99.90
37204;DHT22;23098;48.054;10.636;2023-09-19T02:16:34;16.20;99.90
37204;DHT22;23098;48.054;10.636;2023-09-19T02:18:59;16.20;99.90
37204;DHT22;23098;48.054;10.636;2023-09-19T02:21:25;16.20;99.90
37204;DHT22;23098;48.054;10.636;2023-09-19T02:23:55;16.10;99.90
37204;DHT22;23098;48.054;10.636;2023-09-19T02:26:20;16.10;99.90
37204;DHT22;23098;48.054;10.636;2023-09-19T02:28:46;16.10;99.90
37204;DHT22;23098;48.054;10.636;2023-09-19T02:31:11;16.10;99.90
37204;DHT22;23098;48.054;10.636;2023-09-19T02:33:37;16.10;99.90
37204;DHT22;23098;48.054;10.636;2023-09-19T02:36:03;16.10;99.90
37204;DHT22;23098;48.054;10.636;2023-09-19T02:38:29;16.10;99.90
37204;DHT22;23098;48.054;10.636;2023-09-19T02:40:55;16.10;99.90
37204;DHT22;23098;48.054;10.636;2023-09-19T02:43:21;16.10;99.90
37204;DHT22;23098;48.054;10.636;2023-09-19T02:45:47;16.10;99.90
37204;DHT22;23098;48.054;10.636;2023-09-19T02:48:15;16.10;99.90
37204;DHT22;23098;48.054;10.636;2023-09-19T02:50:42;16.10;99.90
37204;DHT22;23098;48.054;10.636;2023-09-19T02:53:08;16.10;99.90
37204;DHT22;23098;48.054;10.636;2023-09-19T02:55:33;16.10;99.90
37204;DHT22;23098;48.054;10.636;2023-09-19T02:57:59;16.10;99.90
37204;DHT22;23098;48.054;10.636;2023-09-19T03:00:27;16.10;99.90
37204;DHT22;23098;48.054;10.636;2023-09-19T03:02:54;16.10;99.90
37204;DHT22;23098;48.054;10.636;2023-09-19T03:05:20;16.10;99.90
37204;DHT22;23098;48.054;10.636;2023-09-19T03:07:47;16.00;99.90
37204;DHT22;23098;48.054;10.636;2023-09-19T03:10:16;16.00;99.90
37204;DHT22;23098;48.054;10.636;2023-09-19T03:12:42;16.10;99.90
37204;DHT22;23098;48.054;10.636;2023-09-19T03:15:08;16.10;99.90
37204;DHT22;23098;48.054;10.636;2023-09-19T03:17:34;16.10;99.90
37204;DHT22;23098;48.054;10.636;2023-09-19T03:20:01;16.00;99.90
37204;DHT22;23098;48.054;10.636;2023-09-19T03:22:27;16.00;99.90
37204;DHT22;23098;48.054;10.636;2023-09-19T03:24:53;16.00;99.90
37204;DHT22;23098;48.054;10.636;2023-09-19T03:27:19;16.00;99.90
37204;DHT22;23098;48.054;10.636;2023-09-19T03:29:46;16.00;99.90
37204;DHT22;23098;48.054;10.636;2023-09-19T03:32:12;15.90;99.90
37204;DHT22;23098;48.054;10.636;2023-09-19T03:34:38;15.80;99.90
37204;DHT22;23098;48.054;10.636;2023-09-19T03:37:09;15.80;99.90
37204;DHT22;23098;48.054;10.636;2023-09-19T03:39:35;15.80;99.90
37204;DHT22;23098;48.054;10.636;2023-09-19T03:42:01;15.80;99.90
37204;DHT22;23098;48.054;10.636;2023-09-19T03:44:28;15.80;99.90
37204;DHT22;23098;48.054;10.636;2023-09-19T03:46:53;15.80;99.90
37204;DHT22;23098;48.054;10.636;2023-09-19T03:49:21;15.80;99.90
37204;DHT22;23098;48.054;10.636;2023-09-19T03:51:46;15.80;99.90
37204;DHT22;23098;48.054;10.636;2023-09-19T03:54:12;15.70;99.90
37204;DHT22;23098;48.054;10.636;2023-09-19T03:56:38;15.70;99.90
37204;DHT22;23098;48.054;10.636;2023-09-19T03:59:03;15.70;99.90
37204;DHT22;23098;48.054;10.636;2023-09-19T04:01:29;15.70;99.90
37204;DHT22;23098;48.054;10.636;2023-09-19T04:03:57;15.60;99.90
37204;DHT22;23098;48.054;10.636;2023-09-19T04:06:23;15.60;99.90
37204;DHT22;23098;48.054;10.636;2023-09-19T04:08:48;15.60;99.90
37204;DHT22;23098;48.054;10.636;2023-09-19T04:11:14;15.60;99.90
37204;DHT22;23098;48.054;10.636;2023-09-19T04:13:39;15.60;99.90
37204;DHT22;23098;48.054;10.636;2023-09-19T04:16:05;15.60;99.90
37204;DHT22;23098;48.054;10.636;2023-09-19T04:18:32;15.60;99.90
37204;DHT22;23098;48.054;10.636;2023-09-19T04:21:02;15.50;99.90
37204;DHT22;23098;48.054;10.636;2023-09-19T04:23:29;15.50;99.90
37204;DHT22;23098;48.054;10.636;2023-09-19T04:25:55;15.50;99.90
37204;DHT22;23098;48.054;10.636;2023-09-19T04:28:20;15.50;99.90
37204;DHT22;23098;48.054;10.636;2023-09-19T04:30:46;15.40;99.90
37204;DHT22;23098;48.054;10.636;2023-09-19T04:33:11;15.40;99.90
37204;DHT22;23098;48.054;10.636;2023-09-19T04:35:40;15.40;99.90
37204;DHT22;23098;48.054;10.636;2023-09-19T04:38:08;15.40;99.90
37204;DHT22;23098;48.054;10.636;2023-09-19T04:40:33;15.40;99.90
37204;DHT22;23098;48.054;10.636;2023-09-19T04:42:59;15.40;99.90
37204;DHT22;23098;48.054;10.636;2023-09-19T04:45:28;15.40;99.90
37204;DHT22;23098;48.054;10.636;2023-09-19T04:47:55;15.40;99.90
37204;DHT22;23098;48.054;10.636;2023-09-19T04:50:21;15.50;99.90
37204;DHT22;23098;48.054;10.636;2023-09-19T04:52:51;15.50;99.90
37204;DHT22;23098;48.054;10.636;2023-09-19T04:55:18;15.50;99.90
37204;DHT22;23098;48.054;10.636;2023-09-19T05:00:13;15.60;99.90
37204;DHT22;23098;48.054;10.636;2023-09-19T05:02:40;15.60;99.90
37204;DHT22;23098;48.054;10.636;2023-09-19T05:05:07;15.60;99.90
37204;DHT22;23098;48.054;10.636;2023-09-19T05:07:33;15.60;99.90
37204;DHT22;23098;48.054;10.636;2023-09-19T05:09:59;15.70;99.90
37204;DHT22;23098;48.054;10.636;2023-09-19T05:12:26;15.70;99.90
37204;DHT22;23098;48.054;10.636;2023-09-19T05:14:52;15.70;99.90
37204;DHT22;23098;48.054;10.636;2023-09-19T05:17:18;15.70;99.90
37204;DHT22;23098;48.054;10.636;2023-09-19T05:19:43;15.70;99.90
37204;DHT22;23098;48.054;10.636;2023-09-19T05:22:09;15.70;99.90
37204;DHT22;23098;48.054;10.636;2023-09-19T05:24:34;15.70;99.90
37204;DHT22;23098;48.054;10.636;2023-09-19T05:27:00;15.70;99.90
37204;DHT22;23098;48.054;10.636;2023-09-19T05:29:26;15.70;99.90
37204;DHT22;23098;48.054;10.636;2023-09-19T05:31:51;15.70;99.90
37204;DHT22;23098;48.054;10.636;2023-09-19T05:34:18;15.70;99.90
37204;DHT22;23098;48.054;10.636;2023-09-19T05:36:44;15.80;99.90
37204;DHT22;23098;48.054;10.636;2023-09-19T05:39:10;15.80;99.90
37204;DHT22;23098;48.054;10.636;2023-09-19T05:41:36;15.80;99.90
37204;DHT22;23098;48.054;10.636;2023-09-19T05:44:02;15.80;99.90
37204;DHT22;23098;48.054;10.636;2023-09-19T05:46:28;15.80;99.90
37204;DHT22;23098;48.054;10.636;2023-09-19T05:48:55;15.90;99.90
37204;DHT22;23098;48.054;10.636;2023-09-19T05:51:22;15.90;99.90
37204;DHT22;23098;48.054;10.636;2023-09-19T05:53:48;15.90;99.90
37204;DHT22;23098;48.054;10.636;2023-09-19T05:56:14;15.90;99.90
37204;DHT22;23098;48.054;10.636;2023-09-19T05:58:40;15.90;99.90
37204;DHT22;23098;48.054;10.636;2023-09-19T06:01:08;15.80;99.90
37204;DHT22;23098;48.054;10.636;2023-09-19T06:03:35;15.80;99.90
37204;DHT22;23098;48.054;10.636;2023-09-19T06:06:04;15.70;99.90
37204;DHT22;23098;48.054;10.636;2023-09-19T06:08:34;15.80;99.90
37204;DHT22;23098;48.054;10.636;2023-09-19T06:11:00;15.80;99.90
37204;DHT22;23098;48.054;10.636;2023-09-19T06:13:28;15.90;99.90
37204;DHT22;23098;48.054;10.636;2023-09-19T06:15:55;15.90;99.90
37204;DHT22;23098;48.054;10.636;2023-09-19T06:18:21;15.90;99.90
37204;DHT22;23098;48.054;10.636;2023-09-19T06:20:51;15.90;99.90
37204;DHT22;23098;48.054;10.636;2023-09-19T06:23:17;15.90;99.90
37204;DHT22;23098;48.054;10.636;2023-09-19T06:25:43;15.90;99.90
37204;DHT22;23098;48.054;10.636;2023-09-19T06:28:09;16.00;99.90
37204;DHT22;23098;48.054;10.636;2023-09-19T06:30:37;16.00;99.90
37204;DHT22;23098;48.054;10.636;2023-09-19T06:33:06;16.10;99.90
37204;DHT22;23098;48.054;10.636;2023-09-19T06:35:33;16.10;99.90
37204;DHT22;23098;48.054;10.636;2023-09-19T06:38:01;16.20;99.90
37204;DHT22;23098;48.054;10.636;2023-09-19T06:40:28;16.30;99.90
37204;DHT22;23098;48.054;10.636;2023-09-19T06:42:56;16.50;99.90
37204;DHT22;23098;48.054;10.636;2023-09-19T06:45:21;16.50;99.90
37204;DHT22;23098;48.054;10.636;2023-09-19T06:47:51;16.60;99.90
37204;DHT22;23098;48.054;10.636;2023-09-19T06:50:17;16.60;99.90
37204;DHT22;23098;48.054;10.636;2023-09-19T06:52:45;16.70;99.90
37204;DHT22;23098;48.054;10.636;2023-09-19T06:55:14;16.70;99.90
37204;DHT22;23098;48.054;10.636;2023-09-19T06:57:41;16.70;99.90
37204;DHT22;23098;48.054;10.636;2023-09-19T07:00:08;16.70;99.90
37204;DHT22;23098;48.054;10.636;2023-09-19T07:02:41;16.80;99.90
37204;DHT22;23098;48.054;10.636;2023-09-19T07:05:07;16.90;99.90
37204;DHT22;23098;48.054;10.636;2023-09-19T07:07:32;17.00;99.90
37204;DHT22;23098;48.054;10.636;2023-09-19T07:10:03;17.00;99.90
37204;DHT22;23098;48.054;10.636;2023-09-19T07:12:35;17.00;99.90
37204;DHT22;23098;48.054;10.636;2023-09-19T07:15:01;16.90;99.90
37204;DHT22;23098;48.054;10.636;2023-09-19T07:17:26;17.00;99.90
37204;DHT22;23098;48.054;10.636;2023-09-19T07:19:52;17.20;99.90
37204;DHT22;23098;48.054;10.636;2023-09-19T07:22:18;17.30;99.90
37204;DHT22;23098;48.054;10.636;2023-09-19T07:24:43;17.50;99.90
37204;DHT22;23098;48.054;10.636;2023-09-19T07:27:09;17.80;99.90
37204;DHT22;23098;48.054;10.636;2023-09-19T07:29:34;17.80;99.90
37204;DHT22;23098;48.054;10.636;2023-09-19T07:32:00;17.80;99.90
37204;DHT22;23098;48.054;10.636;2023-09-19T07:34:25;17.80;99.90
37204;DHT22;23098;48.054;10.636;2023-09-19T07:36:51;17.70;99.90
37204;DHT22;23098;48.054;10.636;2023-09-19T07:39:17;17.70;99.90
37204;DHT22;23098;48.054;10.636;2023-09-19T07:41:42;17.80;99.90
37204;DHT22;23098;48.054;10.636;2023-09-19T07:44:08;17.80;99.90
37204;DHT22;23098;48.054;10.636;2023-09-19T07:46:35;17.80;99.90
37204;DHT22;23098;48.054;10.636;2023-09-19T07:49:01;17.80;99.90
37204;DHT22;23098;48.054;10.636;2023-09-19T07:51:26;17.90;99.90
37204;DHT22;23098;48.054;10.636;2023-09-19T07:53:52;17.90;99.90
37204;DHT22;23098;48.054;10.636;2023-09-19T07:56:18;17.80;99.90
37204;DHT22;23098;48.054;10.636;2023-09-19T07:58:46;18.00;99.90
37204;DHT22;23098;48.054;10.636;2023-09-19T08:01:12;18.10;99.90
37204;DHT22;23098;48.054;10.636;2023-09-19T08:03:39;18.10;99.90
37204;DHT22;23098;48.054;10.636;2023-09-19T08:06:06;18.20;99.90
37204;DHT22;23098;48.054;10.636;2023-09-19T08:08:33;18.30;99.90
37204;DHT22;23098;48.054;10.636;2023-09-19T08:11:06;18.40;99.90
37204;DHT22;23098;48.054;10.636;2023-09-19T08:13:39;18.50;99.90
37204;DHT22;23098;48.054;10.636;2023-09-19T08:16:09;18.60;99.90
37204;DHT22;23098;48.054;10.636;2023-09-19T08:18:35;18.70;99.90
37204;DHT22;23098;48.054;10.636;2023-09-19T08:21:00;18.80;99.90
37204;DHT22;23098;48.054;10.636;2023-09-19T08:23:26;19.00;99.90
37204;DHT22;23098;48.054;10.636;2023-09-19T08:25:56;19.00;99.90
37204;DHT22;23098;48.054;10.636;2023-09-19T08:28:23;19.00;99.90
37204;DHT22;23098;48.054;10.636;2023-09-19T08:30:50;19.20;99.90
37204;DHT22;23098;48.054;10.636;2023-09-19T08:33:16;19.20;99.90
37204;DHT22;23098;48.054;10.636;2023-09-19T08:35:42;19.40;99.90
37204;DHT22;23098;48.054;10.636;2023-09-19T08:38:08;19.30;99.60
37204;DHT22;23098;48.054;10.636;2023-09-19T08:40:37;19.00;99.60
37204;DHT22;23098;48.054;10.636;2023-09-19T08:43:05;19.10;99.90
37204;DHT22;23098;48.054;10.636;2023-09-19T08:45:32;19.20;99.00
37204;DHT22;23098;48.054;10.636;2023-09-19T08:50:56;18.90;99.90
37204;DHT22;23098;48.054;10.636;2023-09-19T08:55:59;18.70;99.70
37204;DHT22;23098;48.054;10.636;2023-09-19T08:58:31;18.70;99.20
37204;DHT22;23098;48.054;10.636;2023-09-19T09:00:59;18.60;99.30
37204;DHT22;23098;48.054;10.636;2023-09-19T09:03:27;18.70;99.10
37204;DHT22;23098;48.054;10.636;2023-09-19T09:05:57;18.90;99.20
37204;DHT22;23098;48.054;10.636;2023-09-19T09:08:23;19.30;99.10
37204;DHT22;23098;48.054;10.636;2023-09-19T09:10:50;19.50;98.70
37204;DHT22;23098;48.054;10.636;2023-09-19T09:13:16;19.70;97.60
37204;DHT22;23098;48.054;10.636;2023-09-19T09:15:43;19.90;97.50
37204;DHT22;23098;48.054;10.636;2023-09-19T09:18:10;20.20;96.90
37204;DHT22;23098;48.054;10.636;2023-09-19T09:20:36;20.40;96.90
37204;DHT22;23098;48.054;10.636;2023-09-19T09:23:02;20.20;96.40
37204;DHT22;23098;48.054;10.636;2023-09-19T09:25:54;20.20;97.20
37204;DHT22;23098;48.054;10.636;2023-09-19T09:28:24;19.90;96.50
37204;DHT22;23098;48.054;10.636;2023-09-19T09:30:50;19.70;97.10
37204;DHT22;23098;48.054;10.636;2023-09-19T09:33:16;19.70;97.20
37204;DHT22;23098;48.054;10.636;2023-09-19T09:35:58;19.90;97.40
37204;DHT22;23098;48.054;10.636;2023-09-19T09:38:28;19.80;96.30
37204;DHT22;23098;48.054;10.636;2023-09-19T09:40:58;19.50;96.60
37204;DHT22;23098;48.054;10.636;2023-09-19T09:43:26;19.50;97.00
37204;DHT22;23098;48.054;10.636;2023-09-19T09:46:11;19.80;96.70
37204;DHT22;23098;48.054;10.636;2023-09-19T09:51:40;20.00;96.70
37204;DHT22;23098;48.054;10.636;2023-09-19T09:54:16;20.10;96.30
37204;DHT22;23098;48.054;10.636;2023-09-19T09:56:58;20.00;95.60
37204;DHT22;23098;48.054;10.636;2023-09-19T09:59:51;19.80;95.50
37204;DHT22;23098;48.054;10.636;2023-09-19T10:02:40;20.20;96.60
37204;DHT22;23098;48.054;10.636;2023-09-19T10:05:15;20.50;95.40
37204;DHT22;23098;48.054;10.636;2023-09-19T10:07:54;20.60;94.30
37204;DHT22;23098;48.054;10.636;2023-09-19T10:10:36;20.60;94.00
37204;DHT22;23098;48.054;10.636;2023-09-19T10:13:12;19.90;94.90
37204;DHT22;23098;48.054;10.636;2023-09-19T10:15:39;19.40;95.50
37204;DHT22;23098;48.054;10.636;2023-09-19T10:18:10;19.20;95.80
37204;DHT22;23098;48.054;10.636;2023-09-19T10:20:37;18.90;95.90
37204;DHT22;23098;48.054;10.636;2023-09-19T10:23:09;18.80;96.10
37204;DHT22;23098;48.054;10.636;2023-09-19T10:25:38;18.80;96.80
37204;DHT22;23098;48.054;10.636;2023-09-19T10:28:09;18.80;96.30
37204;DHT22;23098;48.054;10.636;2023-09-19T10:30:42;18.70;96.80
37204;DHT22;23098;48.054;10.636;2023-09-19T10:33:11;18.70;96.70
37204;DHT22;23098;48.054;10.636;2023-09-19T10:35:45;18.70;97.10
37204;DHT22;23098;48.054;10.636;2023-09-19T10:38:13;19.00;96.70
37204;DHT22;23098;48.054;10.636;2023-09-19T10:40:40;19.50;96.60
37204;DHT22;23098;48.054;10.636;2023-09-19T10:43:15;19.90;95.60
37204;DHT22;23098;48.054;10.636;2023-09-19T10:45:49;20.40;96.10
37204;DHT22;23098;48.054;10.636;2023-09-19T10:48:16;20.70;94.80
37204;DHT22;23098;48.054;10.636;2023-09-19T10:53:27;20.90;92.70
37204;DHT22;23098;48.054;10.636;2023-09-19T10:55:57;20.90;93.00
37204;DHT22;23098;48.054;10.636;2023-09-19T10:58:27;21.10;93.40
37204;DHT22;23098;48.054;10.636;2023-09-19T11:00:55;21.40;93.60
37204;DHT22;23098;48.054;10.636;2023-09-19T11:03:23;21.20;91.50
37204;DHT22;23098;48.054;10.636;2023-09-19T11:08:54;21.70;92.30
37204;DHT22;23098;48.054;10.636;2023-09-19T11:11:43;21.80;92.00
37204;DHT22;23098;48.054;10.636;2023-09-19T11:30:42;21.40;91.90
37204;DHT22;23098;48.054;10.636;2023-09-19T11:33:30;21.60;92.40
37204;DHT22;23098;48.054;10.636;2023-09-19T11:36:06;22.20;91.40
37204;DHT22;23098;48.054;10.636;2023-09-19T11:43:46;22.10;91.70
37204;DHT22;23098;48.054;10.636;2023-09-19T11:46:12;22.30;90.60
37204;DHT22;23098;48.054;10.636;2023-09-19T11:48:42;22.30;90.20
37204;DHT22;23098;48.054;10.636;2023-09-19T11:51:20;22.20;90.40
37204;DHT22;23098;48.054;10.636;2023-09-19T11:53:58;22.20;90.70
37204;DHT22;23098;48.054;10.636;2023-09-19T11:56:27;21.80;90.40
37204;DHT22;23098;48.054;10.636;2023-09-19T11:58:55;21.90;90.80
37204;DHT22;23098;48.054;10.636;2023-09-19T12:01:31;22.10;90.50
37204;DHT22;23098;48.054;10.636;2023-09-19T12:04:00;22.30;90.50
37204;DHT22;23098;48.054;10.636;2023-09-19T12:06:28;22.30;90.20
37204;DHT22;23098;48.054;10.636;2023-09-19T12:08:55;22.30;90.40
37204;DHT22;23098;48.054;10.636;2023-09-19T12:11:23;22.30;90.10
37204;DHT22;23098;48.054;10.636;2023-09-19T12:13:49;22.50;90.20
37204;DHT22;23098;48.054;10.636;2023-09-19T12:16:16;22.20;89.20
37204;DHT22;23098;48.054;10.636;2023-09-19T12:18:43;22.00;91.00
37204;DHT22;23098;48.054;10.636;2023-09-19T12:21:29;22.20;90.40
37204;DHT22;23098;48.054;10.636;2023-09-19T12:26:41;22.30;91.20
37204;DHT22;23098;48.054;10.636;2023-09-19T12:29:15;22.30;91.30
37204;DHT22;23098;48.054;10.636;2023-09-19T12:31:54;22.10;90.30
37204;DHT22;23098;48.054;10.636;2023-09-19T12:34:24;22.30;90.30
37204;DHT22;23098;48.054;10.636;2023-09-19T12:39:41;22.50;90.70
37204;DHT22;23098;48.054;10.636;2023-09-19T12:42:12;22.50;90.30
37204;DHT22;23098;48.054;10.636;2023-09-19T12:44:45;22.20;89.50
37204;DHT22;23098;48.054;10.636;2023-09-19T12:47:17;22.20;91.20
37204;DHT22;23098;48.054;10.636;2023-09-19T12:50:06;21.50;90.50
37204;DHT22;23098;48.054;10.636;2023-09-19T12:52:37;21.20;91.10
37204;DHT22;23098;48.054;10.636;2023-09-19T12:55:03;21.80;91.70
37204;DHT22;23098;48.054;10.636;2023-09-19T12:57:30;22.20;91.40
37204;DHT22;23098;48.054;10.636;2023-09-19T13:00:03;22.10;90.40
37204;DHT22;23098;48.054;10.636;2023-09-19T13:02:31;22.00;90.70
37204;DHT22;23098;48.054;10.636;2023-09-19T13:04:58;22.50;91.00
37204;DHT22;23098;48.054;10.636;2023-09-19T13:07:44;22.80;89.40
37204;DHT22;23098;48.054;10.636;2023-09-19T13:10:15;23.10;90.40
37204;DHT22;23098;48.054;10.636;2023-09-19T13:12:42;23.60;87.20
37204;DHT22;23098;48.054;10.636;2023-09-19T13:15:13;23.40;87.40
37204;DHT22;23098;48.054;10.636;2023-09-19T13:17:49;23.20;86.70
37204;DHT22;23098;48.054;10.636;2023-09-19T13:20:25;22.90;87.50
37204;DHT22;23098;48.054;10.636;2023-09-19T13:22:55;22.60;87.90
37204;DHT22;23098;48.054;10.636;2023-09-19T13:25:25;22.80;88.10
37204;DHT22;23098;48.054;10.636;2023-09-19T13:27:55;22.60;87.60
37204;DHT22;23098;48.054;10.636;2023-09-19T13:30:23;22.80;88.10
37204;DHT22;23098;48.054;10.636;2023-09-19T13:32:51;23.20;87.30
37204;DHT22;23098;48.054;10.636;2023-09-19T13:35:18;23.00;87.10
37204;DHT22;23098;48.054;10.636;2023-09-19T13:37:44;22.80;88.50
37204;DHT22;23098;48.054;10.636;2023-09-19T13:40:12;22.90;88.90
37204;DHT22;23098;48.054;10.636;2023-09-19T13:42:39;22.90;86.20
37204;DHT22;23098;48.054;10.636;2023-09-19T13:45:06;22.90;86.80
37204;DHT22;23098;48.054;10.636;2023-09-19T13:47:32;22.40;87.60
37204;DHT22;23098;48.054;10.636;2023-09-19T13:49:58;22.10;87.50
37204;DHT22;23098;48.054;10.636;2023-09-19T13:52:24;22.20;87.90
37204;DHT22;23098;48.054;10.636;2023-09-19T13:54:54;22.10;87.30
37204;DHT22;23098;48.054;10.636;2023-09-19T13:57:25;21.50;88.20
37204;DHT22;23098;48.054;10.636;2023-09-19T13:59:52;21.10;90.00
37204;DHT22;23098;48.054;10.636;2023-09-19T14:02:20;21.20;89.70
37204;DHT22;23098;48.054;10.636;2023-09-19T14:04:48;21.30;90.50
37204;DHT22;23098;48.054;10.636;2023-09-19T14:07:14;21.40;90.60
37204;DHT22;23098;48.054;10.636;2023-09-19T14:09:40;21.80;90.20
37204;DHT22;23098;48.054;10.636;2023-09-19T14:12:06;22.00;89.70
37204;DHT22;23098;48.054;10.636;2023-09-19T14:14:32;22.60;90.30
37204;DHT22;23098;48.054;10.636;2023-09-19T14:16:58;22.80;89.30
37204;DHT22;23098;48.054;10.636;2023-09-19T14:19:26;22.90;88.50
37204;DHT22;23098;48.054;10.636;2023-09-19T14:21:52;23.00;88.20
37204;DHT22;23098;48.054;10.636;2023-09-19T14:24:21;23.00;87.80
37204;DHT22;23098;48.054;10.636;2023-09-19T14:26:48;23.20;87.80
37204;DHT22;23098;48.054;10.636;2023-09-19T14:29:15;23.30;85.80
37204;DHT22;23098;48.054;10.636;2023-09-19T14:31:40;23.30;87.10
37204;DHT22;23098;48.054;10.636;2023-09-19T14:34:06;23.00;86.60
37204;DHT22;23098;48.054;10.636;2023-09-19T14:36:32;23.10;87.20
37204;DHT22;23098;48.054;10.636;2023-09-19T14:38:58;23.30;86.90
37204;DHT22;23098;48.054;10.636;2023-09-19T14:41:24;23.10;87.10
37204;DHT22;23098;48.054;10.636;2023-09-19T14:43:51;22.90;87.80
37204;DHT22;23098;48.054;10.636;2023-09-19T14:46:17;22.90;88.00
37204;DHT22;23098;48.054;10.636;2023-09-19T14:48:44;22.80;87.60
37204;DHT22;23098;48.054;10.636;2023-09-19T14:51:12;22.80;87.80
37204;DHT22;23098;48.054;10.636;2023-09-19T14:53:39;22.20;89.30
37204;DHT22;23098;48.054;10.636;2023-09-19T14:56:06;22.10;89.80
37204;DHT22;23098;48.054;10.636;2023-09-19T14:58:33;22.20;90.60
37204;DHT22;23098;48.054;10.636;2023-09-19T15:01:09;22.20;89.00
37204;DHT22;23098;48.054;10.636;2023-09-19T15:03:36;22.00;89.00
37204;DHT22;23098;48.054;10.636;2023-09-19T15:06:06;22.20;89.20
37204;DHT22;23098;48.054;10.636;2023-09-19T15:08:33;22.10;90.30
37204;DHT22;23098;48.054;10.636;2023-09-19T15:11:01;22.00;87.90
37204;DHT22;23098;48.054;10.636;2023-09-19T15:13:35;21.90;89.10
37204;DHT22;23098;48.054;10.636;2023-09-19T15:16:06;21.90;90.30
37204;DHT22;23098;48.054;10.636;2023-09-19T15:18:36;21.70;90.10
37204;DHT22;23098;48.054;10.636;2023-09-19T15:21:12;21.70;90.00
37204;DHT22;23098;48.054;10.636;2023-09-19T15:23:39;21.70;90.10
37204;DHT22;23098;48.054;10.636;2023-09-19T15:26:05;21.50;90.30
37204;DHT22;23098;48.054;10.636;2023-09-19T15:28:32;21.40;90.00
37204;DHT22;23098;48.054;10.636;2023-09-19T15:31:04;21.40;89.60
37204;DHT22;23098;48.054;10.636;2023-09-19T15:33:31;21.20;90.00
37204;DHT22;23098;48.054;10.636;2023-09-19T15:36:08;21.10;90.10
37204;DHT22;23098;48.054;10.636;2023-09-19T15:41:47;21.30;90.30
37204;DHT22;23098;48.054;10.636;2023-09-19T15:44:15;21.40;90.40
37204;DHT22;23098;48.054;10.636;2023-09-19T15:46:41;21.40;90.70
37204;DHT22;23098;48.054;10.636;2023-09-19T15:49:07;21.40;91.00
37204;DHT22;23098;48.054;10.636;2023-09-19T15:51:34;21.30;90.80
37204;DHT22;23098;48.054;10.636;2023-09-19T15:54:01;21.30;91.00
37204;DHT22;23098;48.054;10.636;2023-09-19T15:56:33;21.20;90.40
37204;DHT22;23098;48.054;10.636;2023-09-19T15:59:00;21.10;90.40
37204;DHT22;23098;48.054;10.636;2023-09-19T16:01:26;20.90;90.50
37204;DHT22;23098;48.054;10.636;2023-09-19T16:03:53;20.80;90.70
37204;DHT22;23098;48.054;10.636;2023-09-19T16:06:26;20.70;91.20
37204;DHT22;23098;48.054;10.636;2023-09-19T16:08:54;20.70;91.60
37204;DHT22;23098;48.054;10.636;2023-09-19T16:11:21;20.70;91.30
37204;DHT22;23098;48.054;10.636;2023-09-19T16:13:49;20.60;91.30
37204;DHT22;23098;48.054;10.636;2023-09-19T16:16:15;20.40;91.60
37204;DHT22;23098;48.054;10.636;2023-09-19T16:18:52;20.40;91.60
37204;DHT22;23098;48.054;10.636;2023-09-19T16:21:21;20.30;91.60